createdAt,value
2019-03-30T00:00:55.084Z,123.97
2019-03-30T00:03:24.171Z,112.85
2019-03-30T00:05:53.139Z,121.50
2019-03-30T00:08:22.104Z,121.47
2019-03-30T00:10:51.102Z,119.85
2019-03-30T00:13:22.693Z,115.80
2019-03-30T00:15:51.719Z,118.75
2019-03-30T00:18:22.699Z,118.82
2019-03-30T00:20:51.377Z,121.97
2019-03-30T00:23:24.877Z,117.77
2019-03-30T00:25:53.867Z,114.15
2019-03-30T00:28:24.615Z,114.77
2019-03-30T00:30:55.169Z,109.63
2019-03-30T00:33:30.479Z,120.13
2019-03-30T00:36:01.746Z,111.10
2019-03-30T00:38:36.141Z,114.03
2019-03-30T00:41:05.213Z,110.05
2019-03-30T00:43:34.339Z,121.60
2019-03-30T00:46:04.929Z,118.25
2019-03-30T00:48:34.185Z,120.62
2019-03-30T00:51:03.184Z,110.07
2019-03-30T00:53:34.950Z,113.60
2019-03-30T00:58:38.033Z,113.35
2019-03-30T01:01:12.095Z,114.85
2019-03-30T01:03:44.877Z,113.75
2019-03-30T01:06:14.075Z,112.35
2019-03-30T01:08:43.041Z,117.93
2019-03-30T01:11:12.007Z,105.37
2019-03-30T01:13:46.474Z,108.65
2019-03-30T01:16:15.579Z,111.15
2019-03-30T01:18:44.559Z,112.42
2019-03-30T01:21:13.557Z,111.57
2019-03-30T01:23:42.592Z,120.05
2019-03-30T01:26:11.632Z,110.55
2019-03-30T01:28:44.027Z,102.22
2019-03-30T01:31:13.022Z,104.05
2019-03-30T01:33:49.005Z,99.03
2019-03-30T01:36:19.861Z,106.03
2019-03-30T01:38:54.163Z,98.72
2019-03-30T01:41:26.137Z,97.05
2019-03-30T01:44:01.673Z,103.50
2019-03-30T01:46:30.725Z,100.45
2019-03-30T01:49:03.889Z,98.20
2019-03-30T01:51:35.509Z,98.62
2019-03-30T01:54:07.237Z,97.70
2019-03-30T01:56:37.763Z,93.40
2019-03-30T01:59:06.820Z,96.85
2019-03-30T02:01:40.789Z,93.62
2019-03-30T02:04:09.825Z,93.82
2019-03-30T02:06:38.799Z,89.10
2019-03-30T02:09:08.750Z,86.78
2019-03-30T02:11:37.743Z,97.25
2019-03-30T02:14:06.767Z,92.60
2019-03-30T02:16:38.965Z,88.25
2019-03-30T02:19:14.060Z,88.95
2019-03-30T02:21:43.057Z,85.83
2019-03-30T02:24:12.722Z,86.00
2019-03-30T02:26:41.742Z,86.25
2019-03-30T02:29:13.889Z,82.30
2019-03-30T02:31:42.979Z,80.70
2019-03-30T02:36:41.065Z,82.05
2019-03-30T02:39:10.090Z,83.45
2019-03-30T02:41:42.580Z,78.10
2019-03-30T02:44:13.092Z,70.32
2019-03-30T02:46:43.875Z,75.40
2019-03-30T02:49:15.543Z,83.23
2019-03-30T02:51:44.560Z,67.55
2019-03-30T02:54:15.965Z,75.42
2019-03-30T02:56:45.005Z,64.75
2019-03-30T02:59:15.750Z,66.05
2019-03-30T03:01:44.730Z,68.87
2019-03-30T03:04:15.784Z,68.70
2019-03-30T03:06:47.259Z,65.42
2019-03-30T03:09:16.226Z,66.80
2019-03-30T03:11:45.199Z,68.07
2019-03-30T03:14:14.252Z,61.00
2019-03-30T03:16:46.044Z,60.30
2019-03-30T03:19:16.592Z,58.92
2019-03-30T03:21:51.642Z,64.12
2019-03-30T03:24:23.914Z,65.45
2019-03-30T03:26:53.030Z,67.95
2019-03-30T03:29:24.844Z,69.10
2019-03-30T03:31:57.000Z,70.67
2019-03-30T03:34:26.121Z,70.55
2019-03-30T03:36:59.299Z,71.30
2019-03-30T03:39:29.511Z,63.87
2019-03-30T03:41:58.817Z,58.23
2019-03-30T03:44:27.793Z,63.28
2019-03-30T03:46:56.789Z,60.48
2019-03-30T03:49:25.835Z,61.98
2019-03-30T03:51:54.817Z,57.05
2019-03-30T03:54:25.851Z,60.33
2019-03-30T03:56:55.503Z,60.83
2019-03-30T03:59:30.519Z,60.12
2019-03-30T04:02:04.500Z,56.35
2019-03-30T04:04:40.339Z,53.52
2019-03-30T04:07:08.391Z,62.00
2019-03-30T04:09:38.026Z,58.00
2019-03-30T04:12:08.310Z,69.00
2019-03-30T04:14:40.555Z,63.30
2019-03-30T04:17:09.999Z,63.40
2019-03-30T04:19:46.880Z,64.97
2019-03-30T04:22:15.875Z,67.55
2019-03-30T04:24:44.932Z,63.45
2019-03-30T04:27:16.768Z,61.90
2019-03-30T04:29:49.003Z,63.90
2019-03-30T04:32:18.124Z,64.37
2019-03-30T04:34:47.118Z,66.43
2019-03-30T04:37:16.084Z,63.80
2019-03-30T04:39:48.196Z,63.90
2019-03-30T04:42:17.275Z,62.65
2019-03-30T04:44:46.274Z,63.07
2019-03-30T04:47:15.232Z,60.73
2019-03-30T04:49:44.652Z,63.75
2019-03-30T04:52:14.830Z,56.70
2019-03-30T04:54:47.284Z,60.48
2019-03-30T04:57:16.241Z,56.28
2019-03-30T04:59:45.222Z,53.85
2019-03-30T05:02:14.186Z,53.48
2019-03-30T05:04:43.158Z,56.30
2019-03-30T05:07:15.608Z,56.02
2019-03-30T05:09:44.625Z,55.90
2019-03-30T05:12:16.625Z,58.08
2019-03-30T05:14:50.426Z,55.10
2019-03-30T05:17:27.451Z,56.37
2019-03-30T05:19:54.436Z,54.53
2019-03-30T05:22:24.634Z,54.27
2019-03-30T05:24:56.512Z,53.50
2019-03-30T05:27:25.485Z,54.18
2019-03-30T05:29:54.962Z,56.92
2019-03-30T05:32:23.909Z,56.03
2019-03-30T05:34:52.879Z,50.98
2019-03-30T05:37:22.231Z,55.40
2019-03-30T05:39:52.771Z,52.48
2019-03-30T05:42:21.799Z,51.68
2019-03-30T05:44:53.678Z,50.92
2019-03-30T05:47:22.630Z,51.55
2019-03-30T05:49:51.621Z,46.48
2019-03-30T05:52:26.730Z,55.35
2019-03-30T05:54:51.239Z,48.63
2019-03-30T05:57:21.026Z,48.08
2019-03-30T05:59:51.549Z,54.73
2019-03-30T06:02:22.893Z,50.67
2019-03-30T06:04:54.157Z,50.63
2019-03-30T06:07:26.199Z,50.13
2019-03-30T06:09:55.290Z,45.38
2019-03-30T06:12:24.295Z,47.00
2019-03-30T06:14:53.341Z,41.57
2019-03-30T06:17:22.451Z,44.55
2019-03-30T06:19:51.449Z,48.27
2019-03-30T06:22:22.783Z,49.50
2019-03-30T06:24:51.847Z,45.70
2019-03-30T06:27:22.663Z,48.48
2019-03-30T06:30:09.691Z,45.35
2019-03-30T06:32:38.665Z,45.35
2019-03-30T06:35:07.820Z,47.20
2019-03-30T06:37:36.940Z,45.17
2019-03-30T06:40:06.021Z,42.73
2019-03-30T06:42:35.015Z,49.67
2019-03-30T06:45:05.409Z,42.93
2019-03-30T06:47:36.966Z,41.37
2019-03-30T06:50:09.497Z,42.58
2019-03-30T06:52:41.263Z,40.35
2019-03-30T06:55:13.153Z,41.13
2019-03-30T06:57:42.256Z,43.20
2019-03-30T07:00:11.587Z,43.20
2019-03-30T07:02:41.581Z,45.65
2019-03-30T07:07:40.706Z,40.75
2019-03-30T07:10:10.038Z,43.35
2019-03-30T07:12:41.500Z,45.40
2019-03-30T07:15:12.098Z,40.67
2019-03-30T07:17:42.614Z,42.23
2019-03-30T07:20:16.158Z,42.08
2019-03-30T07:22:46.904Z,38.42
2019-03-30T07:25:16.006Z,37.03
2019-03-30T07:27:45.006Z,41.57
2019-03-30T07:30:14.273Z,34.90
2019-03-30T07:32:45.012Z,40.75
2019-03-30T07:35:14.082Z,45.53
2019-03-30T07:37:43.043Z,37.47
2019-03-30T07:40:15.372Z,36.95
2019-03-30T07:42:47.672Z,38.45
2019-03-30T07:45:16.799Z,34.18
2019-03-30T07:47:46.181Z,35.65
2019-03-30T07:50:17.044Z,39.58
2019-03-30T07:52:47.787Z,37.58
2019-03-30T07:55:19.803Z,36.23
2019-03-30T07:57:49.195Z,35.48
2019-03-30T08:00:19.975Z,34.05
2019-03-30T08:02:54.958Z,35.00
2019-03-30T08:05:24.117Z,35.13
2019-03-30T08:07:53.157Z,36.65
2019-03-30T08:10:23.203Z,36.40
2019-03-30T08:12:54.491Z,38.30
2019-03-30T08:15:23.145Z,35.17
2019-03-30T08:17:57.356Z,35.20
2019-03-30T08:20:27.945Z,34.08
2019-03-30T08:22:58.717Z,38.38
2019-03-30T08:25:31.492Z,38.23
2019-03-30T08:28:00.447Z,36.13
2019-03-30T08:30:31.163Z,39.75
2019-03-30T08:33:02.449Z,40.28
2019-03-30T08:35:31.463Z,40.00
2019-03-30T08:38:00.463Z,37.90
2019-03-30T08:40:32.536Z,37.00
2019-03-30T08:43:01.547Z,41.83
2019-03-30T08:45:30.639Z,39.13
2019-03-30T08:48:00.693Z,44.65
2019-03-30T08:50:29.685Z,40.30
2019-03-30T08:52:59.186Z,40.40
2019-03-30T08:55:28.369Z,41.73
2019-03-30T08:58:01.907Z,40.23
2019-03-30T09:00:37.917Z,37.93
2019-03-30T09:03:06.963Z,45.17
2019-03-30T09:05:35.969Z,47.38
2019-03-30T09:08:04.918Z,45.60
2019-03-30T09:10:33.912Z,49.42
2019-03-30T09:13:03.445Z,48.78
2019-03-30T09:15:32.504Z,50.38
2019-03-30T09:18:02.894Z,43.90
2019-03-30T09:20:31.884Z,45.78
2019-03-30T09:23:02.934Z,47.65
2019-03-30T09:25:32.378Z,46.20
2019-03-30T09:28:05.236Z,48.70
2019-03-30T09:30:35.221Z,44.60
2019-03-30T09:33:04.174Z,49.42
2019-03-30T09:35:33.341Z,45.20
2019-03-30T09:38:05.377Z,46.90
2019-03-30T09:40:34.364Z,48.98
2019-03-30T09:43:03.395Z,48.13
2019-03-30T09:45:34.860Z,49.88
2019-03-30T09:48:06.572Z,47.88
2019-03-30T09:50:35.638Z,48.17
2019-03-30T09:53:04.618Z,48.57
2019-03-30T09:55:33.842Z,49.03
2019-03-30T09:58:02.820Z,51.35
2019-03-30T10:00:31.833Z,57.07
2019-03-30T10:03:05.781Z,52.07
2019-03-30T10:05:34.652Z,49.90
2019-03-30T10:08:05.182Z,51.15
2019-03-30T10:10:34.207Z,51.50
2019-03-30T10:13:03.328Z,56.70
2019-03-30T10:15:32.292Z,57.48
2019-03-30T10:18:03.928Z,53.33
2019-03-30T10:20:34.155Z,55.43
2019-03-30T10:23:08.948Z,54.80
2019-03-30T10:25:38.102Z,51.75
2019-03-30T10:28:08.599Z,56.10
2019-03-30T10:30:37.550Z,52.90
2019-03-30T10:33:06.555Z,57.40
2019-03-30T10:35:38.167Z,52.55
2019-03-30T10:38:07.185Z,56.30
2019-03-30T10:40:36.305Z,54.97
2019-03-30T10:43:05.279Z,56.30
2019-03-30T10:45:37.034Z,58.87
2019-03-30T10:48:10.815Z,58.15
2019-03-30T10:50:41.053Z,57.35
2019-03-30T10:53:12.978Z,56.15
2019-03-30T10:55:42.332Z,54.05
2019-03-30T10:58:14.315Z,56.65
2019-03-30T11:00:43.351Z,54.38
2019-03-30T11:03:14.088Z,61.67
2019-03-30T11:05:43.085Z,59.67
2019-03-30T11:08:12.184Z,66.17
2019-03-30T11:10:41.160Z,56.08
2019-03-30T11:13:11.351Z,58.67
2019-03-30T11:15:41.848Z,56.98
2019-03-30T11:18:12.834Z,56.90
2019-03-30T11:20:44.942Z,52.05
2019-03-30T11:23:16.587Z,52.40
2019-03-30T11:25:48.729Z,55.77
2019-03-30T11:28:20.518Z,52.58
2019-03-30T11:30:52.860Z,53.55
2019-03-30T11:33:22.025Z,52.62
2019-03-30T11:35:52.675Z,53.57
2019-03-30T11:38:22.143Z,52.65
2019-03-30T11:40:54.641Z,48.13
2019-03-30T11:43:25.310Z,50.35
2019-03-30T11:45:55.240Z,53.68
2019-03-30T11:48:27.965Z,50.20
2019-03-30T11:51:00.124Z,48.95
2019-03-30T11:53:30.623Z,57.27
2019-03-30T11:55:59.652Z,51.08
2019-03-30T11:58:28.887Z,48.73
2019-03-30T12:01:03.703Z,48.35
2019-03-30T12:03:31.659Z,52.35
2019-03-30T12:06:04.593Z,51.05
2019-03-30T12:08:32.665Z,46.23
2019-03-30T12:11:01.635Z,53.30
2019-03-30T12:13:30.582Z,53.73
2019-03-30T12:15:59.590Z,50.20
2019-03-30T12:18:30.439Z,54.63
2019-03-30T12:20:59.361Z,49.60
2019-03-30T12:23:28.319Z,52.37
2019-03-30T12:25:58.605Z,53.33
2019-03-30T12:28:27.595Z,52.13
2019-03-30T12:30:56.869Z,54.00
2019-03-30T12:33:25.903Z,52.53
2019-03-30T12:35:57.211Z,47.10
2019-03-30T12:38:26.318Z,51.00
2019-03-30T12:40:56.638Z,48.68
2019-03-30T12:43:25.849Z,51.50
2019-03-30T12:45:56.644Z,50.45
2019-03-30T12:48:29.370Z,55.25
2019-03-30T12:50:58.414Z,52.25
2019-03-30T12:53:27.408Z,50.58
2019-03-30T12:56:00.694Z,51.75
2019-03-30T12:58:29.795Z,52.70
2019-03-30T13:00:58.888Z,51.18
2019-03-30T13:03:29.024Z,49.67
2019-03-30T13:05:58.054Z,50.43
2019-03-30T13:08:27.425Z,44.38
2019-03-30T13:10:56.475Z,43.08
2019-03-30T13:13:25.727Z,44.20
2019-03-30T13:18:27.742Z,43.05
2019-03-30T13:21:04.268Z,47.78
2019-03-30T13:23:34.725Z,46.20
2019-03-30T13:26:04.349Z,41.58
2019-03-30T13:31:03.217Z,42.67
2019-03-30T13:33:33.733Z,40.95
2019-03-30T13:36:16.173Z,37.15
2019-03-30T13:38:45.559Z,34.40
2019-03-30T13:41:16.295Z,36.17
2019-03-30T13:43:45.715Z,40.38
2019-03-30T13:46:14.809Z,35.03
2019-03-30T13:48:46.326Z,33.18
2019-03-30T13:51:15.317Z,36.28
2019-03-30T13:53:46.126Z,36.15
2019-03-30T13:56:17.771Z,37.23
2019-03-30T13:58:52.223Z,35.55
2019-03-30T14:01:22.860Z,36.70
2019-03-30T14:03:54.305Z,35.40
2019-03-30T14:06:26.499Z,39.42
2019-03-30T14:08:58.552Z,42.78
2019-03-30T14:11:30.646Z,39.90
2019-03-30T14:14:01.050Z,38.65
2019-03-30T14:16:31.100Z,31.02
2019-03-30T14:19:01.298Z,38.33
2019-03-30T14:25:08.401Z,30.62
2019-03-30T14:27:40.776Z,30.35
2019-03-30T14:30:13.719Z,32.67
2019-03-30T14:32:42.730Z,30.30
2019-03-30T14:35:11.711Z,33.15
2019-03-30T14:37:42.903Z,35.60
2019-03-30T14:40:14.905Z,40.78
2019-03-30T14:42:44.178Z,50.58
2019-03-30T14:45:13.682Z,54.50
2019-03-30T14:47:44.337Z,55.65
2019-03-30T14:50:14.913Z,47.38
2019-03-30T14:52:43.914Z,46.35
2019-03-30T14:55:15.142Z,50.55
2019-03-30T14:57:47.348Z,50.55
2019-03-30T15:00:17.003Z,55.10
2019-03-30T15:02:46.334Z,54.95
2019-03-30T15:05:15.622Z,48.10
2019-03-30T15:07:46.146Z,45.63
2019-03-30T15:10:19.114Z,45.63
2019-03-30T15:12:49.498Z,54.03
2019-03-30T15:15:19.444Z,45.70
2019-03-30T15:17:48.422Z,51.65
2019-03-30T15:20:19.956Z,52.67
2019-03-30T15:22:50.722Z,52.55
2019-03-30T15:25:19.690Z,50.40
2019-03-30T15:27:53.547Z,50.95
2019-03-30T15:30:22.509Z,50.67
2019-03-30T15:32:53.852Z,56.23
2019-03-30T15:35:22.877Z,55.65
2019-03-30T15:37:51.850Z,50.85
2019-03-30T15:40:23.145Z,53.70
2019-03-30T15:42:54.911Z,58.25
2019-03-30T15:45:32.682Z,59.30
2019-03-30T15:48:04.896Z,62.35
2019-03-30T15:50:37.027Z,62.17
2019-03-30T15:53:06.094Z,64.53
2019-03-30T15:55:37.693Z,65.85
2019-03-30T15:58:06.720Z,63.87
2019-03-30T16:00:35.680Z,66.12
2019-03-30T16:03:06.454Z,60.63
2019-03-30T16:05:39.825Z,66.00
2019-03-30T16:08:08.798Z,61.98
2019-03-30T16:10:37.736Z,61.33
2019-03-30T16:13:14.414Z,58.68
2019-03-30T16:15:47.222Z,53.08
2019-03-30T16:18:16.218Z,57.08
2019-03-30T16:20:45.285Z,55.40
2019-03-30T16:23:16.076Z,46.95
2019-03-30T16:25:45.064Z,47.93
2019-03-30T16:28:14.487Z,49.23
2019-03-30T16:30:43.506Z,50.35
2019-03-30T16:33:17.823Z,42.30
2019-03-30T16:35:46.799Z,46.50
2019-03-30T16:38:18.365Z,44.23
2019-03-30T16:40:50.823Z,56.90
2019-03-30T16:43:19.838Z,56.42
2019-03-30T16:45:48.774Z,48.73
2019-03-30T16:48:20.050Z,47.00
2019-03-30T16:50:50.018Z,53.25
2019-03-30T16:53:27.931Z,55.08
2019-03-30T16:55:56.892Z,59.60
2019-03-30T16:58:25.976Z,58.63
2019-03-30T17:00:57.094Z,64.37
2019-03-30T17:03:26.247Z,60.38
2019-03-30T17:05:57.806Z,62.35
2019-03-30T17:08:26.780Z,63.43
2019-03-30T17:10:55.795Z,66.83
2019-03-30T17:13:26.344Z,66.30
2019-03-30T17:15:58.757Z,62.43
2019-03-30T17:18:33.135Z,62.33
2019-03-30T17:21:03.755Z,64.75
2019-03-30T17:23:39.038Z,71.80
2019-03-30T17:26:08.077Z,68.75
2019-03-30T17:28:37.046Z,71.07
2019-03-30T17:31:06.202Z,75.13
2019-03-30T17:33:35.178Z,68.12
2019-03-30T17:36:05.421Z,69.00
2019-03-30T17:38:36.843Z,68.75
2019-03-30T17:41:09.019Z,63.20
2019-03-30T17:43:45.596Z,62.58
2019-03-30T17:46:15.427Z,63.58
2019-03-30T17:48:44.436Z,64.27
2019-03-30T17:51:13.360Z,64.43
2019-03-30T17:53:42.369Z,59.53
2019-03-30T17:56:16.697Z,60.10
2019-03-30T17:58:52.703Z,59.08
2019-03-30T18:01:24.745Z,58.52
2019-03-30T18:03:59.080Z,67.30
2019-03-30T18:06:29.361Z,66.55
2019-03-30T18:08:58.306Z,66.87
2019-03-30T18:11:27.257Z,71.40
2019-03-30T18:13:58.650Z,64.50
2019-03-30T18:16:27.385Z,66.40
2019-03-30T18:18:56.413Z,64.25
2019-03-30T18:21:27.993Z,65.05
2019-03-30T18:23:56.933Z,64.90
2019-03-30T18:26:32.195Z,64.15
2019-03-30T18:28:58.329Z,61.85
2019-03-30T18:31:27.379Z,61.88
2019-03-30T18:33:58.705Z,64.15
2019-03-30T18:36:28.996Z,59.13
2019-03-30T18:39:09.870Z,64.53
2019-03-30T18:41:44.662Z,67.10
2019-03-30T18:44:13.633Z,69.50
2019-03-30T18:46:42.668Z,73.40
2019-03-30T18:49:11.878Z,70.77
2019-03-30T18:51:44.208Z,67.20
2019-03-30T18:54:13.398Z,69.37
2019-03-30T18:56:42.435Z,67.15
2019-03-30T18:59:11.425Z,65.70
2019-03-30T19:01:41.557Z,73.83
2019-03-30T19:04:11.721Z,69.37
2019-03-30T19:06:40.726Z,74.32
2019-03-30T19:09:15.404Z,69.10
2019-03-30T19:11:46.201Z,76.55
2019-03-30T19:14:16.887Z,75.42
2019-03-30T19:16:51.257Z,76.85
2019-03-30T19:19:20.319Z,82.67
2019-03-30T19:21:54.370Z,85.95
2019-03-30T19:24:23.357Z,87.05
2019-03-30T19:26:52.352Z,86.65
2019-03-30T19:29:24.228Z,85.87
2019-03-30T19:31:53.188Z,84.55
2019-03-30T19:34:28.338Z,90.92
2019-03-30T19:37:01.056Z,85.35
2019-03-30T19:39:30.019Z,88.00
2019-03-30T19:42:00.208Z,96.00
2019-03-30T19:44:29.188Z,101.80
2019-03-30T19:46:58.170Z,97.70
2019-03-30T19:49:28.350Z,96.50
2019-03-30T19:51:59.526Z,88.92
2019-03-30T19:54:29.240Z,81.53
2019-03-30T19:56:58.289Z,82.20
2019-03-30T19:59:28.284Z,84.90
2019-03-30T20:01:58.926Z,81.32
2019-03-30T20:04:30.784Z,68.40
2019-03-30T20:06:59.790Z,76.80
2019-03-30T20:09:31.237Z,72.55
2019-03-30T20:12:00.200Z,73.70
2019-03-30T20:14:29.196Z,74.90
2019-03-30T20:16:58.172Z,72.60
2019-03-30T20:19:27.154Z,75.90
2019-03-30T20:25:25.820Z,67.75
2019-03-30T20:27:55.821Z,69.77
2019-03-30T20:30:28.210Z,72.22
2019-03-30T20:32:57.240Z,71.15
2019-03-30T20:35:26.225Z,73.60
2019-03-30T20:37:57.031Z,77.58
2019-03-30T20:40:32.251Z,75.45
2019-03-30T20:42:56.685Z,77.60
2019-03-30T20:45:25.678Z,79.87
2019-03-30T20:47:55.040Z,81.12
2019-03-30T20:50:25.450Z,74.25
2019-03-30T20:52:56.553Z,82.33
2019-03-30T20:55:25.553Z,90.72
2019-03-30T20:57:56.719Z,82.00
2019-03-30T21:00:25.685Z,84.15
2019-03-30T21:02:54.679Z,90.77
2019-03-30T21:05:23.633Z,84.35
2019-03-30T21:07:54.161Z,87.75
2019-03-30T21:10:25.599Z,92.15
2019-03-30T21:12:54.566Z,88.33
2019-03-30T21:15:23.543Z,85.75
2019-03-30T21:17:52.580Z,89.30
2019-03-30T21:20:21.551Z,86.90
2019-03-30T21:22:51.735Z,88.50
2019-03-30T21:25:24.127Z,85.45
2019-03-30T21:27:56.053Z,90.97
2019-03-30T21:30:25.026Z,90.72
2019-03-30T21:32:56.348Z,97.90
2019-03-30T21:35:25.433Z,86.92
2019-03-30T21:37:58.565Z,101.55
2019-03-30T21:40:27.181Z,96.15
2019-03-30T21:42:56.608Z,95.92
2019-03-30T21:45:25.645Z,102.47
2019-03-30T21:47:54.663Z,106.30
2019-03-30T21:50:25.250Z,107.87
2019-03-30T21:52:54.247Z,111.20
2019-03-30T21:55:23.287Z,106.32
2019-03-30T21:57:55.130Z,103.87
2019-03-30T22:00:28.750Z,100.25
2019-03-30T22:03:08.189Z,112.10
2019-03-30T22:05:38.443Z,103.70
2019-03-30T22:08:07.487Z,103.65
2019-03-30T22:10:36.504Z,107.40
2019-03-30T22:13:05.495Z,107.43
2019-03-30T22:15:34.458Z,107.20
2019-03-30T22:18:03.795Z,114.75
2019-03-30T22:20:32.842Z,112.55
2019-03-30T22:23:05.398Z,117.10
2019-03-30T22:25:35.044Z,114.35
2019-03-30T22:28:04.102Z,116.30
2019-03-30T22:30:33.098Z,116.03
2019-03-30T22:33:02.208Z,116.85
2019-03-30T22:35:32.717Z,107.60
2019-03-30T22:38:03.298Z,108.80
2019-03-30T22:40:36.126Z,118.25
2019-03-30T22:43:05.098Z,121.82
2019-03-30T22:45:34.186Z,114.35
2019-03-30T22:48:07.672Z,121.57
2019-03-30T22:50:36.625Z,119.37
2019-03-30T22:53:08.294Z,120.45
2019-03-30T22:55:37.378Z,119.02
2019-03-30T22:58:08.035Z,120.10
2019-03-30T23:00:42.165Z,122.70
2019-03-30T23:03:12.834Z,115.75
2019-03-30T23:05:41.928Z,123.82
2019-03-30T23:08:10.971Z,122.47
2019-03-30T23:10:39.988Z,131.12
2019-03-30T23:13:10.594Z,122.42
2019-03-30T23:15:39.570Z,129.80
2019-03-30T23:18:08.654Z,138.57
2019-03-30T23:23:06.777Z,136.10
2019-03-30T23:25:35.748Z,141.62
2019-03-30T23:28:09.670Z,140.47
2019-03-30T23:30:53.589Z,153.42
2019-03-30T23:33:10.926Z,162.90
2019-03-30T23:35:39.902Z,163.55
2019-03-30T23:38:09.026Z,163.72
2019-03-30T23:40:37.989Z,172.90
2019-03-30T23:43:10.112Z,164.28
2019-03-30T23:45:39.073Z,172.60
2019-03-30T23:48:08.123Z,172.93
2019-03-30T23:50:43.079Z,174.27
2019-03-30T23:53:13.555Z,174.62
2019-03-30T23:55:43.917Z,174.80
2019-03-30T23:58:16.756Z,172.93
